sensor_id;sensor_type;location;lat;lon;timestamp;pressure;altitude;pressure_sealevel;temperature;humidity
55932;BME280;41837;55.700;37.984;2023-04-20T00:00:50;100780.13;;;2.03;88.79
55932;BME280;41837;55.700;37.984;2023-04-20T00:03:17;100761.91;;;1.82;91.58
55932;BME280;41837;55.700;37.984;2023-04-20T00:05:46;100776.47;;;1.75;93.00
55932;BME280;41837;55.700;37.984;2023-04-20T00:08:15;100774.66;;;1.66;94.34
55932;BME280;41837;55.700;37.984;2023-04-20T00:10:43;100774.59;;;1.62;95.49
55932;BME280;41837;55.700;37.984;2023-04-20T00:13:10;100767.63;;;1.50;98.28
55932;BME280;41837;55.700;37.984;2023-04-20T00:15:37;100784.69;;;1.42;100.00
55932;BME280;41837;55.700;37.984;2023-04-20T00:18:04;100779.47;;;1.33;100.00
55932;BME280;41837;55.700;37.984;2023-04-20T00:20:30;100782.06;;;1.34;100.00
55932;BME280;41837;55.700;37.984;2023-04-20T00:22:57;100774.22;;;1.26;100.00
55932;BME280;41837;55.700;37.984;2023-04-20T00:25:23;100776.66;;;1.14;100.00
55932;BME280;41837;55.700;37.984;2023-04-20T00:27:49;100763.69;;;1.06;100.00
55932;BME280;41837;55.700;37.984;2023-04-20T00:30:15;100774.00;;;1.08;100.00
55932;BME280;41837;55.700;37.984;2023-04-20T00:32:42;100762.72;;;0.95;100.00
55932;BME280;41837;55.700;37.984;2023-04-20T00:35:08;100761.88;;;0.98;100.00
55932;BME280;41837;55.700;37.984;2023-04-20T00:37:35;100756.69;;;0.95;100.00
55932;BME280;41837;55.700;37.984;2023-04-20T00:40:02;100760.13;;;0.97;100.00
55932;BME280;41837;55.700;37.984;2023-04-20T00:42:31;100765.22;;;0.90;100.00
55932;BME280;41837;55.700;37.984;2023-04-20T00:44:58;100777.19;;;0.90;100.00
55932;BME280;41837;55.700;37.984;2023-04-20T00:47:24;100777.22;;;0.88;100.00
55932;BME280;41837;55.700;37.984;2023-04-20T00:49:51;100770.28;;;0.86;100.00
55932;BME280;41837;55.700;37.984;2023-04-20T00:52:18;100763.38;;;0.80;100.00
55932;BME280;41837;55.700;37.984;2023-04-20T00:54:46;100752.97;;;0.72;100.00
55932;BME280;41837;55.700;37.984;2023-04-20T00:57:18;100762.44;;;0.75;100.00
55932;BME280;41837;55.700;37.984;2023-04-20T00:59:45;100764.13;;;0.74;100.00
55932;BME280;41837;55.700;37.984;2023-04-20T01:02:13;100754.69;;;0.72;100.00
55932;BME280;41837;55.700;37.984;2023-04-20T01:04:41;100752.94;;;0.71;100.00
55932;BME280;41837;55.700;37.984;2023-04-20T01:07:07;100758.94;;;0.68;100.00
55932;BME280;41837;55.700;37.984;2023-04-20T01:09:33;100750.31;;;0.68;100.00
55932;BME280;41837;55.700;37.984;2023-04-20T01:11:59;100746.00;;;0.65;100.00
55932;BME280;41837;55.700;37.984;2023-04-20T01:14:26;100745.16;;;0.65;100.00
55932;BME280;41837;55.700;37.984;2023-04-20T01:16:52;100748.69;;;0.71;100.00
55932;BME280;41837;55.700;37.984;2023-04-20T01:19:18;100746.97;;;0.73;100.00
55932;BME280;41837;55.700;37.984;2023-04-20T01:21:46;100755.47;;;0.69;100.00
55932;BME280;41837;55.700;37.984;2023-04-20T01:24:15;100748.53;;;0.62;100.00
55932;BME280;41837;55.700;37.984;2023-04-20T01:26:41;100755.22;;;0.51;100.00
55932;BME280;41837;55.700;37.984;2023-04-20T01:29:07;100756.91;;;0.47;100.00
55932;BME280;41837;55.700;37.984;2023-04-20T01:31:33;100752.66;;;0.49;100.00
55932;BME280;41837;55.700;37.984;2023-04-20T01:34:00;100745.66;;;0.39;100.00
55932;BME280;41837;55.700;37.984;2023-04-20T01:36:26;100750.81;;;0.39;100.00
55932;BME280;41837;55.700;37.984;2023-04-20T01:38:52;100749.09;;;0.40;100.00
55932;BME280;41837;55.700;37.984;2023-04-20T01:41:18;100741.41;;;0.43;100.00
55932;BME280;41837;55.700;37.984;2023-04-20T01:43:45;100746.47;;;0.36;100.00
55932;BME280;41837;55.700;37.984;2023-04-20T01:46:11;100738.63;;;0.29;100.00
55932;BME280;41837;55.700;37.984;2023-04-20T01:48:39;100740.31;;;0.27;100.00
55932;BME280;41837;55.700;37.984;2023-04-20T01:51:05;100746.25;;;0.23;100.00
55932;BME280;41837;55.700;37.984;2023-04-20T01:53:31;100747.97;;;0.24;100.00
55932;BME280;41837;55.700;37.984;2023-04-20T01:55:58;100741.94;;;0.20;100.00
55932;BME280;41837;55.700;37.984;2023-04-20T01:58:25;100740.13;;;0.14;100.00
55932;BME280;41837;55.700;37.984;2023-04-20T02:00:51;100736.56;;;0.06;100.00
55932;BME280;41837;55.700;37.984;2023-04-20T02:03:18;100740.78;;;0.01;100.00
55932;BME280;41837;55.700;37.984;2023-04-20T02:05:47;100740.69;;;-0.04;100.00
55932;BME280;41837;55.700;37.984;2023-04-20T02:08:13;100726.81;;;-0.15;100.00
55932;BME280;41837;55.700;37.984;2023-04-20T02:10:39;100731.09;;;-0.15;100.00
55932;BME280;41837;55.700;37.984;2023-04-20T02:13:05;100738.78;;;-0.15;100.00
55932;BME280;41837;55.700;37.984;2023-04-20T02:15:32;100725.00;;;-0.21;100.00
55932;BME280;41837;55.700;37.984;2023-04-20T02:17:58;100736.16;;;-0.20;100.00
55932;BME280;41837;55.700;37.984;2023-04-20T02:20:24;100717.34;;;-0.17;100.00
55932;BME280;41837;55.700;37.984;2023-04-20T02:22:50;100717.47;;;-0.11;100.00
55932;BME280;41837;55.700;37.984;2023-04-20T02:25:17;100719.19;;;-0.09;100.00
55932;BME280;41837;55.700;37.984;2023-04-20T02:27:43;100722.69;;;-0.07;100.00
55932;BME280;41837;55.700;37.984;2023-04-20T02:30:11;100722.53;;;-0.14;100.00
55932;BME280;41837;55.700;37.984;2023-04-20T02:32:37;100724.22;;;-0.16;100.00
55932;BME280;41837;55.700;37.984;2023-04-20T02:35:04;100722.50;;;-0.17;100.00
55932;BME280;41837;55.700;37.984;2023-04-20T02:37:32;100724.34;;;-0.09;100.00
55932;BME280;41837;55.700;37.984;2023-04-20T02:39:58;100725.16;;;-0.11;100.00
55932;BME280;41837;55.700;37.984;2023-04-20T02:42:27;100722.72;;;-0.02;100.00
55932;BME280;41837;55.700;37.984;2023-04-20T02:44:56;100719.44;;;0.05;100.00
55932;BME280;41837;55.700;37.984;2023-04-20T02:47:23;100719.47;;;0.08;100.00
55932;BME280;41837;55.700;37.984;2023-04-20T02:49:51;100722.97;;;0.13;100.00
55932;BME280;41837;55.700;37.984;2023-04-20T02:52:18;100716.16;;;0.15;100.00
55932;BME280;41837;55.700;37.984;2023-04-20T02:54:45;100726.41;;;0.12;100.00
55932;BME280;41837;55.700;37.984;2023-04-20T02:57:12;100713.56;;;0.14;100.00
55932;BME280;41837;55.700;37.984;2023-04-20T02:59:39;100718.84;;;0.25;100.00
55932;BME280;41837;55.700;37.984;2023-04-20T03:02:13;100724.34;;;0.48;100.00
55932;BME280;41837;55.700;37.984;2023-04-20T03:04:39;100719.97;;;1.11;100.00
55932;BME280;41837;55.700;37.984;2023-04-20T03:07:13;100710.09;;;2.85;100.00
55932;BME280;41837;55.700;37.984;2023-04-20T03:09:41;100690.47;;;3.95;91.35
55932;BME280;41837;55.700;37.984;2023-04-20T03:12:07;100685.84;;;5.01;82.50
55932;BME280;41837;55.700;37.984;2023-04-20T03:14:46;100685.44;;;5.60;75.99
55932;BME280;41837;55.700;37.984;2023-04-20T03:17:13;100685.97;;;6.05;71.71
55932;BME280;41837;55.700;37.984;2023-04-20T03:19:40;100675.03;;;6.58;68.37
55932;BME280;41837;55.700;37.984;2023-04-20T03:22:07;100678.81;;;7.02;67.08
55932;BME280;41837;55.700;37.984;2023-04-20T03:24:34;100671.31;;;7.41;65.93
55932;BME280;41837;55.700;37.984;2023-04-20T03:27:11;100661.66;;;8.00;63.07
55932;BME280;41837;55.700;37.984;2023-04-20T03:29:47;100668.94;;;7.81;62.56
55932;BME280;41837;55.700;37.984;2023-04-20T03:32:14;100663.50;;;8.42;61.46
55932;BME280;41837;55.700;37.984;2023-04-20T03:34:40;100664.50;;;8.80;60.06
55932;BME280;41837;55.700;37.984;2023-04-20T03:37:07;100662.31;;;9.40;56.82
55932;BME280;41837;55.700;37.984;2023-04-20T03:39:33;100659.41;;;9.88;55.16
55932;BME280;41837;55.700;37.984;2023-04-20T03:42:00;100658.94;;;10.39;52.56
55932;BME280;41837;55.700;37.984;2023-04-20T03:44:26;100647.31;;;10.50;51.83
55932;BME280;41837;55.700;37.984;2023-04-20T03:46:53;100659.44;;;11.12;50.55
55932;BME280;41837;55.700;37.984;2023-04-20T03:49:22;100667.34;;;11.65;48.08
55932;BME280;41837;55.700;37.984;2023-04-20T03:51:50;100671.59;;;11.69;47.75
55932;BME280;41837;55.700;37.984;2023-04-20T03:54:16;100657.50;;;11.45;48.15
55932;BME280;41837;55.700;37.984;2023-04-20T03:56:43;100669.31;;;11.58;48.71
55932;BME280;41837;55.700;37.984;2023-04-20T03:59:12;100664.00;;;11.33;48.11
55932;BME280;41837;55.700;37.984;2023-04-20T04:01:40;100666.22;;;12.26;45.08
55932;BME280;41837;55.700;37.984;2023-04-20T04:04:08;100655.34;;;12.11;44.50
55932;BME280;41837;55.700;37.984;2023-04-20T04:06:35;100644.97;;;12.08;44.95
55932;BME280;41837;55.700;37.984;2023-04-20T04:09:01;100654.78;;;12.52;44.21
55932;BME280;41837;55.700;37.984;2023-04-20T04:11:29;100648.47;;;12.81;44.10
55932;BME280;41837;55.700;37.984;2023-04-20T04:13:57;100645.25;;;12.97;43.63
55932;BME280;41837;55.700;37.984;2023-04-20T04:16:24;100638.16;;;12.28;43.78
55932;BME280;41837;55.700;37.984;2023-04-20T04:18:51;100636.25;;;12.80;43.83
55932;BME280;41837;55.700;37.984;2023-04-20T04:21:18;100642.97;;;12.40;43.44
55932;BME280;41837;55.700;37.984;2023-04-20T04:23:50;100637.84;;;12.61;43.15
55932;BME280;41837;55.700;37.984;2023-04-20T04:26:52;100626.59;;;12.57;43.62
55932;BME280;41837;55.700;37.984;2023-04-20T04:29:22;100641.59;;;12.05;44.22
55932;BME280;41837;55.700;37.984;2023-04-20T04:31:52;100635.72;;;12.71;43.62
55932;BME280;41837;55.700;37.984;2023-04-20T04:34:18;100634.88;;;12.70;43.50
55932;BME280;41837;55.700;37.984;2023-04-20T04:36:50;100629.53;;;12.73;43.01
55932;BME280;41837;55.700;37.984;2023-04-20T04:39:22;100632.31;;;13.14;43.25
55932;BME280;41837;55.700;37.984;2023-04-20T04:41:59;100627.97;;;13.57;41.93
55932;BME280;41837;55.700;37.984;2023-04-20T04:44:40;100636.06;;;13.73;41.59
55932;BME280;41837;55.700;37.984;2023-04-20T04:47:09;100631.19;;;13.64;42.07
55932;BME280;41837;55.700;37.984;2023-04-20T04:49:37;100634.03;;;14.01;41.49
55932;BME280;41837;55.700;37.984;2023-04-20T04:52:07;100618.97;;;14.25;39.87
55932;BME280;41837;55.700;37.984;2023-04-20T04:54:33;100612.72;;;14.67;39.76
55932;BME280;41837;55.700;37.984;2023-04-20T04:57:00;100620.03;;;14.21;40.05
55932;BME280;41837;55.700;37.984;2023-04-20T04:59:27;100608.56;;;14.61;40.37
55932;BME280;41837;55.700;37.984;2023-04-20T05:01:53;100619.00;;;14.44;40.73
55932;BME280;41837;55.700;37.984;2023-04-20T05:04:19;100624.25;;;14.44;41.01
55932;BME280;41837;55.700;37.984;2023-04-20T05:06:46;100616.06;;;14.70;39.97
55932;BME280;41837;55.700;37.984;2023-04-20T05:09:12;100607.53;;;15.21;39.64
55932;BME280;41837;55.700;37.984;2023-04-20T05:11:38;100616.81;;;15.10;40.61
55932;BME280;41837;55.700;37.984;2023-04-20T05:14:05;100604.63;;;15.97;37.92
55932;BME280;41837;55.700;37.984;2023-04-20T05:16:31;100606.50;;;15.06;38.60
55932;BME280;41837;55.700;37.984;2023-04-20T05:18:57;100605.41;;;15.46;38.78
55932;BME280;41837;55.700;37.984;2023-04-20T05:21:24;100599.69;;;14.83;39.30
55932;BME280;41837;55.700;37.984;2023-04-20T05:23:51;100605.78;;;15.39;38.88
55932;BME280;41837;55.700;37.984;2023-04-20T05:26:17;100606.28;;;15.10;38.62
55932;BME280;41837;55.700;37.984;2023-04-20T05:28:43;100608.97;;;15.63;38.07
55932;BME280;41837;55.700;37.984;2023-04-20T05:31:10;100604.19;;;15.89;38.25
55932;BME280;41837;55.700;37.984;2023-04-20T05:33:36;100604.44;;;15.84;37.78
55932;BME280;41837;55.700;37.984;2023-04-20T05:36:02;100600.16;;;15.81;38.07
55932;BME280;41837;55.700;37.984;2023-04-20T05:38:28;100597.31;;;16.69;36.60
55932;BME280;41837;55.700;37.984;2023-04-20T05:40:55;100596.13;;;16.90;36.38
55932;BME280;41837;55.700;37.984;2023-04-20T05:43:22;100594.06;;;17.11;35.89
55932;BME280;41837;55.700;37.984;2023-04-20T05:45:48;100597.16;;;17.20;36.27
55932;BME280;41837;55.700;37.984;2023-04-20T05:48:15;100598.00;;;17.81;35.00
55932;BME280;41837;55.700;37.984;2023-04-20T05:50:41;100578.31;;;18.01;34.76
55932;BME280;41837;55.700;37.984;2023-04-20T05:53:07;100584.34;;;18.17;33.72
55932;BME280;41837;55.700;37.984;2023-04-20T05:55:33;100584.69;;;17.22;34.46
55932;BME280;41837;55.700;37.984;2023-04-20T05:58:00;100593.97;;;17.29;34.68
55932;BME280;41837;55.700;37.984;2023-04-20T06:00:26;100596.72;;;16.64;35.27
55932;BME280;41837;55.700;37.984;2023-04-20T06:02:52;100592.19;;;17.29;35.51
55932;BME280;41837;55.700;37.984;2023-04-20T06:05:19;100586.66;;;17.18;35.00
55932;BME280;41837;55.700;37.984;2023-04-20T06:07:46;100592.03;;;17.17;34.49
55932;BME280;41837;55.700;37.984;2023-04-20T06:10:13;100590.66;;;16.77;35.18
55932;BME280;41837;55.700;37.984;2023-04-20T06:12:39;100593.69;;;16.87;35.37
55932;BME280;41837;55.700;37.984;2023-04-20T06:15:06;100590.06;;;16.72;35.05
55932;BME280;41837;55.700;37.984;2023-04-20T06:17:35;100589.22;;;17.04;35.53
55932;BME280;41837;55.700;37.984;2023-04-20T06:20:02;100588.91;;;17.70;35.04
55932;BME280;41837;55.700;37.984;2023-04-20T06:22:30;100591.81;;;17.96;34.14
55932;BME280;41837;55.700;37.984;2023-04-20T06:24:56;100578.16;;;17.43;34.69
55932;BME280;41837;55.700;37.984;2023-04-20T06:27:26;100589.84;;;18.29;33.46
55932;BME280;41837;55.700;37.984;2023-04-20T06:29:53;100585.69;;;17.96;33.59
55932;BME280;41837;55.700;37.984;2023-04-20T06:32:19;100584.81;;;17.95;34.56
55932;BME280;41837;55.700;37.984;2023-04-20T06:34:45;100583.06;;;17.80;33.49
55932;BME280;41837;55.700;37.984;2023-04-20T06:37:12;100581.13;;;18.12;32.92
55932;BME280;41837;55.700;37.984;2023-04-20T06:39:39;100572.53;;;17.94;33.66
55932;BME280;41837;55.700;37.984;2023-04-20T06:42:05;100582.53;;;17.28;34.18
55932;BME280;41837;55.700;37.984;2023-04-20T06:44:32;100568.84;;;17.66;34.39
55932;BME280;41837;55.700;37.984;2023-04-20T06:46:58;100565.25;;;18.41;33.28
55932;BME280;41837;55.700;37.984;2023-04-20T06:49:25;100568.91;;;18.53;33.52
55932;BME280;41837;55.700;37.984;2023-04-20T06:51:51;100561.13;;;19.06;31.61
55932;BME280;41837;55.700;37.984;2023-04-20T06:54:18;100567.50;;;18.33;32.66
55932;BME280;41837;55.700;37.984;2023-04-20T06:56:44;100555.91;;;18.77;32.51
55932;BME280;41837;55.700;37.984;2023-04-20T06:59:10;100564.13;;;18.87;32.29
55932;BME280;41837;55.700;37.984;2023-04-20T07:01:36;100568.22;;;18.07;32.09
55932;BME280;41837;55.700;37.984;2023-04-20T07:04:03;100550.00;;;17.28;32.71
55932;BME280;41837;55.700;37.984;2023-04-20T07:06:29;100564.16;;;17.71;32.02
55932;BME280;41837;55.700;37.984;2023-04-20T07:09:08;100554.28;;;17.45;32.33
55932;BME280;41837;55.700;37.984;2023-04-20T07:11:34;100549.59;;;17.64;32.57
55932;BME280;41837;55.700;37.984;2023-04-20T07:14:01;100548.19;;;17.73;31.33
55932;BME280;41837;55.700;37.984;2023-04-20T07:16:39;100541.56;;;17.21;31.97
55932;BME280;41837;55.700;37.984;2023-04-20T07:19:05;100541.75;;;17.18;32.62
55932;BME280;41837;55.700;37.984;2023-04-20T07:21:31;100550.84;;;17.28;32.39
55932;BME280;41837;55.700;37.984;2023-04-20T07:23:57;100540.72;;;17.65;32.55
55932;BME280;41837;55.700;37.984;2023-04-20T07:26:24;100537.16;;;18.80;31.43
55932;BME280;41837;55.700;37.984;2023-04-20T07:28:50;100527.72;;;19.30;30.88
55932;BME280;41837;55.700;37.984;2023-04-20T07:31:17;100535.00;;;18.87;30.46
55932;BME280;41837;55.700;37.984;2023-04-20T07:33:43;100509.66;;;18.68;30.06
55932;BME280;41837;55.700;37.984;2023-04-20T07:36:09;100531.28;;;19.16;29.09
55932;BME280;41837;55.700;37.984;2023-04-20T07:38:36;100533.88;;;18.35;29.99
55932;BME280;41837;55.700;37.984;2023-04-20T07:41:02;100527.63;;;18.77;29.83
55932;BME280;41837;55.700;37.984;2023-04-20T07:43:28;100512.47;;;19.47;29.64
55932;BME280;41837;55.700;37.984;2023-04-20T07:45:54;100522.22;;;18.79;29.95
55932;BME280;41837;55.700;37.984;2023-04-20T07:48:21;100512.66;;;18.76;28.56
55932;BME280;41837;55.700;37.984;2023-04-20T07:50:47;100504.94;;;18.17;29.74
55932;BME280;41837;55.700;37.984;2023-04-20T07:53:14;100522.06;;;18.12;28.39
55932;BME280;41837;55.700;37.984;2023-04-20T07:55:40;100516.09;;;18.37;29.66
55932;BME280;41837;55.700;37.984;2023-04-20T07:58:06;100517.31;;;17.29;29.88
55932;BME280;41837;55.700;37.984;2023-04-20T08:00:32;100522.41;;;18.34;28.05
55932;BME280;41837;55.700;37.984;2023-04-20T08:02:58;100523.25;;;18.49;28.06
55932;BME280;41837;55.700;37.984;2023-04-20T08:05:25;100510.72;;;18.66;28.70
55932;BME280;41837;55.700;37.984;2023-04-20T08:07:52;100512.72;;;19.16;28.94
55932;BME280;41837;55.700;37.984;2023-04-20T08:10:18;100496.50;;;19.21;26.98
55932;BME280;41837;55.700;37.984;2023-04-20T08:12:45;100504.97;;;19.13;26.93
55932;BME280;41837;55.700;37.984;2023-04-20T08:15:11;100489.66;;;18.50;27.79
55932;BME280;41837;55.700;37.984;2023-04-20T08:17:39;100482.56;;;18.08;28.22
55932;BME280;41837;55.700;37.984;2023-04-20T08:20:06;100482.53;;;18.64;28.16
55932;BME280;41837;55.700;37.984;2023-04-20T08:22:34;100468.72;;;18.32;27.70
55932;BME280;41837;55.700;37.984;2023-04-20T08:25:00;100498.34;;;17.81;28.44
55932;BME280;41837;55.700;37.984;2023-04-20T08:27:34;100487.00;;;17.79;28.59
55932;BME280;41837;55.700;37.984;2023-04-20T08:30:01;100482.91;;;17.45;27.89
55932;BME280;41837;55.700;37.984;2023-04-20T08:32:36;100488.81;;;17.34;29.05
55932;BME280;41837;55.700;37.984;2023-04-20T08:35:03;100480.75;;;17.80;28.24
55932;BME280;41837;55.700;37.984;2023-04-20T08:37:34;100490.31;;;16.77;29.51
55932;BME280;41837;55.700;37.984;2023-04-20T08:40:02;100480.13;;;16.87;29.19
55932;BME280;41837;55.700;37.984;2023-04-20T08:42:32;100479.59;;;16.65;29.49
55932;BME280;41837;55.700;37.984;2023-04-20T08:44:59;100474.69;;;16.27;31.08
55932;BME280;41837;55.700;37.984;2023-04-20T08:47:27;100481.09;;;16.22;30.39
55932;BME280;41837;55.700;37.984;2023-04-20T08:49:54;100479.81;;;16.30;30.28
55932;BME280;41837;55.700;37.984;2023-04-20T08:52:22;100471.59;;;16.82;29.38
55932;BME280;41837;55.700;37.984;2023-04-20T08:54:48;100461.53;;;16.73;28.52
55932;BME280;41837;55.700;37.984;2023-04-20T08:57:14;100464.69;;;16.00;29.03
55932;BME280;41837;55.700;37.984;2023-04-20T08:59:40;100473.97;;;15.91;29.21
55932;BME280;41837;55.700;37.984;2023-04-20T09:02:11;100468.81;;;15.72;29.72
55932;BME280;41837;55.700;37.984;2023-04-20T09:04:42;100461.25;;;15.14;30.05
55932;BME280;41837;55.700;37.984;2023-04-20T09:07:19;100468.28;;;16.78;28.99
55932;BME280;41837;55.700;37.984;2023-04-20T09:09:53;100470.19;;;17.51;28.34
55932;BME280;41837;55.700;37.984;2023-04-20T09:12:21;100447.63;;;17.15;28.37
55932;BME280;41837;55.700;37.984;2023-04-20T09:14:50;100463.53;;;17.44;27.74
55932;BME280;41837;55.700;37.984;2023-04-20T09:17:29;100457.41;;;17.44;27.93
55932;BME280;41837;55.700;37.984;2023-04-20T09:19:57;100456.41;;;17.61;27.21
55932;BME280;41837;55.700;37.984;2023-04-20T09:22:33;100447.16;;;17.53;27.52
55932;BME280;41837;55.700;37.984;2023-04-20T09:25:17;100460.97;;;17.87;27.31
55932;BME280;41837;55.700;37.984;2023-04-20T09:27:58;100448.91;;;17.82;27.16
55932;BME280;41837;55.700;37.984;2023-04-20T09:30:39;100449.88;;;18.10;27.67
55932;BME280;41837;55.700;37.984;2023-04-20T09:33:07;100460.09;;;17.87;26.80
55932;BME280;41837;55.700;37.984;2023-04-20T09:35:35;100452.13;;;16.83;29.29
55932;BME280;41837;55.700;37.984;2023-04-20T09:38:03;100452.59;;;16.75;29.23
55932;BME280;41837;55.700;37.984;2023-04-20T09:40:31;100450.00;;;16.12;28.50
55932;BME280;41837;55.700;37.984;2023-04-20T09:43:06;100440.38;;;16.42;28.97
55932;BME280;41837;55.700;37.984;2023-04-20T09:45:37;100435.84;;;16.60;28.38
55932;BME280;41837;55.700;37.984;2023-04-20T09:48:05;100434.34;;;15.93;28.54
55932;BME280;41837;55.700;37.984;2023-04-20T09:50:35;100434.53;;;16.84;28.17
55932;BME280;41837;55.700;37.984;2023-04-20T09:53:03;100434.69;;;16.96;28.14
55932;BME280;41837;55.700;37.984;2023-04-20T09:55:31;100428.19;;;16.56;28.46
55932;BME280;41837;55.700;37.984;2023-04-20T09:57:57;100418.69;;;16.84;27.69
55932;BME280;41837;55.700;37.984;2023-04-20T10:00:26;100407.94;;;17.46;27.88
55932;BME280;41837;55.700;37.984;2023-04-20T10:02:52;100418.63;;;17.44;26.87
55932;BME280;41837;55.700;37.984;2023-04-20T10:05:19;100421.63;;;17.24;26.89
55932;BME280;41837;55.700;37.984;2023-04-20T10:07:45;100417.28;;;17.37;26.27
55932;BME280;41837;55.700;37.984;2023-04-20T10:10:14;100407.00;;;17.61;27.02
55932;BME280;41837;55.700;37.984;2023-04-20T10:15:17;100413.25;;;17.60;27.10
55932;BME280;41837;55.700;37.984;2023-04-20T10:17:44;100406.44;;;17.56;26.46
55932;BME280;41837;55.700;37.984;2023-04-20T10:22:44;100400.31;;;17.56;27.19
55932;BME280;41837;55.700;37.984;2023-04-20T10:25:23;100406.16;;;17.46;27.88
55932;BME280;41837;55.700;37.984;2023-04-20T10:27:53;100403.41;;;17.33;27.18
55932;BME280;41837;55.700;37.984;2023-04-20T10:30:20;100396.47;;;16.41;26.98
55932;BME280;41837;55.700;37.984;2023-04-20T10:32:47;100401.69;;;16.11;27.48
55932;BME280;41837;55.700;37.984;2023-04-20T10:35:13;100393.38;;;17.10;27.90
55932;BME280;41837;55.700;37.984;2023-04-20T10:37:50;100385.22;;;16.84;26.93
55932;BME280;41837;55.700;37.984;2023-04-20T10:40:24;100404.16;;;16.60;26.34
55932;BME280;41837;55.700;37.984;2023-04-20T10:42:52;100384.06;;;17.19;26.94
55932;BME280;41837;55.700;37.984;2023-04-20T10:45:18;100393.41;;;17.39;27.12
55932;BME280;41837;55.700;37.984;2023-04-20T10:47:46;100389.53;;;17.15;27.22
55932;BME280;41837;55.700;37.984;2023-04-20T10:50:13;100393.31;;;17.40;26.55
55932;BME280;41837;55.700;37.984;2023-04-20T10:52:42;100377.75;;;18.20;26.54
55932;BME280;41837;55.700;37.984;2023-04-20T10:55:23;100375.72;;;18.51;26.20
55932;BME280;41837;55.700;37.984;2023-04-20T10:57:50;100371.19;;;18.26;27.28
55932;BME280;41837;55.700;37.984;2023-04-20T11:00:24;100362.88;;;17.76;28.37
55932;BME280;41837;55.700;37.984;2023-04-20T11:02:51;100369.72;;;17.66;28.74
55932;BME280;41837;55.700;37.984;2023-04-20T11:05:18;100367.81;;;17.10;29.17
55932;BME280;41837;55.700;37.984;2023-04-20T11:07:56;100358.16;;;16.65;29.26
55932;BME280;41837;55.700;37.984;2023-04-20T11:10:36;100362.56;;;17.53;29.25
55932;BME280;41837;55.700;37.984;2023-04-20T11:13:02;100357.41;;;16.63;29.44
55932;BME280;41837;55.700;37.984;2023-04-20T11:15:33;100372.94;;;15.91;30.08
55932;BME280;41837;55.700;37.984;2023-04-20T11:18:07;100368.06;;;15.83;30.43
55932;BME280;41837;55.700;37.984;2023-04-20T11:20:34;100368.78;;;15.69;30.47
55932;BME280;41837;55.700;37.984;2023-04-20T11:23:01;100361.47;;;15.58;30.95
55932;BME280;41837;55.700;37.984;2023-04-20T11:25:30;100357.28;;;15.54;30.68
55932;BME280;41837;55.700;37.984;2023-04-20T11:28:07;100353.53;;;15.42;31.40
55932;BME280;41837;55.700;37.984;2023-04-20T11:30:40;100349.59;;;15.67;31.12
55932;BME280;41837;55.700;37.984;2023-04-20T11:33:07;100341.59;;;15.69;30.94
55932;BME280;41837;55.700;37.984;2023-04-20T11:35:38;100330.13;;;16.48;30.08
55932;BME280;41837;55.700;37.984;2023-04-20T11:38:05;100332.50;;;16.52;29.75
55932;BME280;41837;55.700;37.984;2023-04-20T11:40:32;100331.28;;;16.58;29.44
55932;BME280;41837;55.700;37.984;2023-04-20T11:42:58;100331.75;;;16.95;29.64
55932;BME280;41837;55.700;37.984;2023-04-20T11:45:32;100323.81;;;16.50;29.27
55932;BME280;41837;55.700;37.984;2023-04-20T11:47:59;100323.47;;;16.56;28.44
55932;BME280;41837;55.700;37.984;2023-04-20T11:50:26;100321.84;;;16.54;29.51
55932;BME280;41837;55.700;37.984;2023-04-20T11:53:04;100319.63;;;16.76;28.91
55932;BME280;41837;55.700;37.984;2023-04-20T11:55:43;100322.91;;;16.66;27.96
55932;BME280;41837;55.700;37.984;2023-04-20T11:58:10;100297.53;;;17.08;28.05
55932;BME280;41837;55.700;37.984;2023-04-20T12:00:36;100310.72;;;16.93;27.68
55932;BME280;41837;55.700;37.984;2023-04-20T12:03:02;100302.16;;;16.59;28.43
55932;BME280;41837;55.700;37.984;2023-04-20T12:05:29;100302.56;;;16.68;28.55
55932;BME280;41837;55.700;37.984;2023-04-20T12:07:55;100294.47;;;17.43;28.88
55932;BME280;41837;55.700;37.984;2023-04-20T12:10:23;100291.75;;;17.44;28.37
55932;BME280;41837;55.700;37.984;2023-04-20T12:12:50;100286.78;;;17.11;28.29
55932;BME280;41837;55.700;37.984;2023-04-20T12:15:15;100289.13;;;17.15;28.03
55932;BME280;41837;55.700;37.984;2023-04-20T12:17:42;100292.06;;;16.96;28.68
55932;BME280;41837;55.700;37.984;2023-04-20T12:20:08;100278.75;;;16.98;29.11
55932;BME280;41837;55.700;37.984;2023-04-20T12:22:37;100279.44;;;17.16;28.39
55932;BME280;41837;55.700;37.984;2023-04-20T12:25:04;100275.75;;;16.59;30.11
55932;BME280;41837;55.700;37.984;2023-04-20T12:27:31;100276.81;;;16.71;31.47
55932;BME280;41837;55.700;37.984;2023-04-20T12:29:57;100277.84;;;16.24;31.31
55932;BME280;41837;55.700;37.984;2023-04-20T12:32:24;100273.47;;;16.39;31.11
55932;BME280;41837;55.700;37.984;2023-04-20T12:34:50;100267.88;;;16.74;31.67
55932;BME280;41837;55.700;37.984;2023-04-20T12:37:16;100261.56;;;16.32;31.19
55932;BME280;41837;55.700;37.984;2023-04-20T12:39:42;100268.09;;;16.10;31.59
55932;BME280;41837;55.700;37.984;2023-04-20T12:42:08;100266.78;;;15.87;32.33
55932;BME280;41837;55.700;37.984;2023-04-20T12:44:35;100259.81;;;15.70;32.63
55932;BME280;41837;55.700;37.984;2023-04-20T12:47:13;100266.34;;;15.63;31.83
55932;BME280;41837;55.700;37.984;2023-04-20T12:49:40;100267.13;;;15.65;33.35